Aviation Digital Data Service (ADDS)

Output produced by METARs form (1031 UTC 02 September 2015)
found at http://www.aviationweather.gov/adds/metars/
 
KMDT 020956Z 00000KT 9SM BKN250 21/19 A3004 RMK AO2 SLP169 T02060189
KMDT 020856Z 00000KT 9SM BKN250 21/18 A3003 RMK AO2 SLP166 T02060183 56006
KMDT 020756Z 00000KT 9SM BKN250 21/19 A3003 RMK AO2 SLP168 T02110189
KMDT 020656Z 00000KT 9SM FEW250 21/18 A3004 RMK AO2 SLP170 T02110183
KMDT 020556Z 00000KT 10SM FEW250 21/19 A3005 RMK AO2 SLP173 T02110189 10267 20206 58001
KMDT 020456Z 00000KT 10SM FEW250 22/19 A3006 RMK AO2 SLP176 T02170189 403170206
KMDT 020356Z 00000KT 9SM FEW250 22/19 A3006 RMK AO2 SLP176 T02220189
KMDT 020256Z 00000KT 9SM FEW250 23/19 A3005 RMK AO2 SLP174 T02280189 51009
KMDT 020156Z 00000KT 10SM FEW250 24/19 A3004 RMK AO2 SLP172 T02390194
KMDT 020056Z 00000KT 10SM FEW250 23/19 A3004 RMK AO2 SLP170 T02280194
KMDT 012356Z 00000KT 10SM FEW250 27/21 A3002 RMK AO2 SLP164 T02720206 10317 20267 53001
KMDT 012256Z 36004KT 10SM FEW250 30/17 A3001 RMK AO2 SLP162 T03000167
KMDT 012156Z 31004KT 10SM FEW055 FEW250 31/18 A3001 RMK AO2 SLP160 T03060183
KMDT 012056Z 28007KT 10SM FEW050 31/18 A3002 RMK AO2 SLP163 T03110183 55011
KMDT 011956Z 29007KT 10SM FEW050 31/17 A3002 RMK AO2 SLP162 T03110172
KMDT 011856Z 29008KT 10SM FEW050 31/17 A3003 RMK AO2 SLP168 T03110172
KMDT 011756Z 28007KT 10SM FEW040 31/17 A3005 RMK AO2 SLP174 T03110172 10311 20228 56009
KMDT 011656Z 30009KT 10SM CLR 31/15 A3005 RMK AO2 SLP175 T03110150
KMDT 011556Z 30009KT 10SM CLR 31/16 A3007 RMK AO2 SLP180 T03060156
KMDT 011456Z 32012KT 10SM CLR 29/17 A3008 RMK AO2 SLP184 T02890172 51003
KMDT 011356Z 31005KT 10SM CLR 27/19 A3008 RMK AO2 SLP183 T02720194
KMDT 011256Z 32006KT 8SM SCT049 24/19 A3008 RMK AO2 SLP183 T02390194
KMDT 011156Z 33006KT 8SM CLR 23/19 A3007 RMK AO2 SLP181 T02280189 10228 20206 53013
KMDT 011056Z 32006KT 7SM CLR 22/19 A3005 RMK AO2 SLP173 T02170189
KMDT 010956Z 32010KT 9SM CLR 22/19 A3004 RMK AO2 SLP169 T02220189
KMDT 010856Z 31005KT 10SM CLR 22/19 A3003 RMK AO2 SLP168 T02170189 53001
KMDT 010756Z 00000KT 9SM CLR 22/19 A3003 RMK AO2 SLP167 T02170194
KMDT 010656Z 00000KT 9SM FEW065 21/19 A3003 RMK AO2 SLP166 T02110194
KMDT 010556Z 00000KT 10SM FEW065 21/19 A3003 RMK AO2 SLP167 T02110194 10272 20211 58001
KMDT 010456Z 00000KT 10SM FEW070 22/20 A3004 RMK A02 SLP169 T02220200 403170217
KMDT 010356Z 00000KT 10SM FEW070 24/20 A3003 RMK A02 SLP168 T02390200
KMDT 010256Z 14003KT 10SM FEW070 26/21 A3003 RMK AO2 SLP168 T02560206 51009
KMDT 010156Z 00000KT 10SM FEW070 FEW250 26/20 A3002 RMK AO2 SLP165 T02560200
KMDT 010056Z 00000KT 10SM FEW250 27/21 A3002 RMK AO2 SLP163 T02670211
KMDT 312356Z 00000KT 10SM SCT250 26/22 A3001 RMK AO2 SLP159 T02610217 10317 20261 53002
KMDT 312256Z 24003KT 10SM SCT250 29/22 A3000 RMK AO2 SLP156 T02890217